Meteorología y climatología de Navarra
Datos de la estación - Meteo Navarra

Estación de Yesa GN

Altitud 487 m.


Datos desde el 16/09/2020 hasta el 17/09/2020 en horario solar
Los datos son PROVISIONALES

Anterior Página 1 de 1 Siguiente Descargar: Formato para Excel 2000 o superior   Formato csv   Formato para OpenOffice Calc
Fecha Temperatura Humedad relativa Radiación global Insolación Precipitación Vel. viento 10 m Vel. viento 10 m Dir. viento 10 m
ºC % W/m² s l/m² m/s km/h º
16/09/2020 0:00 21.1 57 0.0 0 0.0 3.8 13.6 105
16/09/2020 0:10 21.0 57 0.0 0 0.0 4.2 15.1 105
16/09/2020 0:20 20.9 58 0.0 0 0.0 4.1 14.7 104
16/09/2020 0:30 20.9 58 0.0 0 0.0 4.2 15.0 103
16/09/2020 0:40 20.7 58 0.0 0 0.0 4.0 14.3 101
16/09/2020 0:50 20.6 58 0.0 0 0.0 4.4 15.9 99
16/09/2020 1:00 20.6 57 0.0 0 0.0 4.7 17.0 101
16/09/2020 1:10 20.7 58 0.0 0 0.0 5.2 18.8 101
16/09/2020 1:20 20.3 59 0.0 0 0.0 4.8 17.4 103
16/09/2020 1:30 20.1 60 0.0 0 0.0 4.3 15.3 106
16/09/2020 1:40 20.0 60 0.0 0 0.0 4.9 17.7 103
16/09/2020 1:50 19.7 62 0.0 0 0.0 5.1 18.2 102
16/09/2020 2:00 19.3 63 0.0 0 0.0 5.3 19.0 102
16/09/2020 2:10 19.3 63 0.0 0 0.0 5.6 20.1 101
16/09/2020 2:20 19.1 63 0.0 0 0.0 4.7 17.1 104
16/09/2020 2:30 18.9 63 0.0 0 0.0 4.5 16.3 105
16/09/2020 2:40 19.1 63 0.0 0 0.0 4.8 17.1 103
16/09/2020 2:50 18.9 64 0.0 0 0.0 4.9 17.5 104
16/09/2020 3:00 18.8 63 0.0 0 0.0 5.0 17.8 102
16/09/2020 3:10 18.8 63 0.0 0 0.0 4.3 15.6 99
16/09/2020 3:20 18.7 63 0.0 0 0.0 4.7 16.8 99
16/09/2020 3:30 18.8 63 0.0 0 0.0 4.8 17.2 100
16/09/2020 3:40 18.8 64 0.0 0 0.0 4.7 16.8 100
16/09/2020 3:50 18.7 64 0.0 0 0.0 4.8 17.1 104
16/09/2020 4:00 18.4 64 0.0 0 0.0 4.7 17.1 106
16/09/2020 4:10 18.3 65 0.0 0 0.0 5.2 18.6 109
16/09/2020 4:20 18.2 65 0.0 0 0.0 4.8 17.1 110
16/09/2020 4:30 17.9 67 0.0 0 0.0 4.8 17.1 109
16/09/2020 4:40 17.7 67 0.0 0 0.0 4.0 14.5 110
16/09/2020 4:50 17.6 69 0.0 0 0.0 4.2 14.9 113
16/09/2020 5:00 17.5 72 0.0 0 0.0 3.2 11.5 114
16/09/2020 5:10 17.0 74 0.0 0 0.0 3.3 11.7 110
16/09/2020 5:20 17.0 75 0.0 0 0.0 2.7 9.6 104
16/09/2020 5:30 17.0 76 0.0 0 0.0 3.1 11.1 111
16/09/2020 5:40 16.8 75 0.0 0 0.0 2.7 9.9 111
16/09/2020 5:50 16.6 75 0.0 0 0.0 2.8 10.1 112
16/09/2020 6:00 16.6 76 0.9 0 0.0 2.6 9.4 111
16/09/2020 6:10 16.4 76 22.8 120 0.0 3.4 12.3 114
16/09/2020 6:20 16.6 77 46.0 600 0.0 3.6 12.9 110
16/09/2020 6:30 16.7 78 68.8 600 0.0 4.2 15.0 109
16/09/2020 6:40 16.8 77 90.4 600 0.0 4.0 14.2 106
16/09/2020 6:50 16.8 78 113.7 600 0.0 3.6 12.8 108
16/09/2020 7:00 17.0 75 142.4 600 0.0 3.3 11.7 110
16/09/2020 7:10 17.4 71 168.2 600 0.0 3.2 11.6 117
16/09/2020 7:20 17.5 70 196.6 600 0.0 3.0 10.9 121
16/09/2020 7:30 17.8 71 229.6 600 0.0 2.6 9.2 111
16/09/2020 7:40 18.1 70 265.0 600 0.0 2.6 9.4 112
16/09/2020 7:50 18.3 70 274.4 600 0.0 3.1 11.2 117
16/09/2020 8:00 18.5 70 314.0 600 0.0 3.2 11.6 121
16/09/2020 8:10 18.8 68 360.0 600 0.0 3.2 11.6 120
16/09/2020 8:20 19.0 67 391.0 600 0.0 3.2 11.4 118
16/09/2020 8:30 19.5 65 422.7 600 0.0 3.4 12.1 114
16/09/2020 8:40 20.0 63 454.6 600 0.0 2.9 10.5 121
16/09/2020 8:50 20.5 62 483.5 600 0.0 2.7 9.8 118
16/09/2020 9:00 21.1 60 507.3 600 0.0 2.0 7.1 116
16/09/2020 9:10 21.5 58 533.5 600 0.0 1.5 5.5 145
16/09/2020 9:20 21.9 54 560.1 600 0.0 1.5 5.5 152
16/09/2020 9:30 22.4 53 584.2 600 0.0 1.7 6.1 131
16/09/2020 9:40 23.0 50 611.5 600 0.0 2.0 7.3 131
16/09/2020 9:50 23.7 48 629.1 600 0.0 2.4 8.7 128
16/09/2020 10:00 24.0 46 647.2 600 0.0 2.3 8.4 130
16/09/2020 10:10 24.5 44 669.0 600 0.0 2.5 8.9 127
16/09/2020 10:20 25.5 43 684.7 600 0.0 1.8 6.4 147
16/09/2020 10:30 26.1 41 664.7 600 0.0 2.0 7.3 128
16/09/2020 10:40 26.8 39 711.1 600 0.0 1.3 4.5 145
16/09/2020 10:50 27.8 39 723.1 600 0.0 1.2 4.3 133
16/09/2020 11:00 28.5 39 734.3 600 0.0 0.8 3.0 173
16/09/2020 11:10 28.8 39 743.4 600 0.0 1.6 5.8 226
16/09/2020 11:20 29.5 36 749.7 600 0.0 1.0 3.6 198
16/09/2020 11:30 29.6 37 754.0 600 0.0 1.5 5.5 304
16/09/2020 11:40 30.1 35 757.9 600 0.0 1.6 5.6 241
16/09/2020 11:50 30.4 33 760.2 600 0.0 2.0 7.2 273
16/09/2020 12:00 30.4 34 760.0 600 0.0 1.7 5.9 266
16/09/2020 12:10 30.4 34 759.1 600 0.0 1.4 4.9 293
16/09/2020 12:20 30.3 33 754.4 600 0.0 0.9 3.3 288
16/09/2020 12:30 30.8 33 745.6 600 0.0 1.5 5.3 276
16/09/2020 12:40 31.1 31 740.8 600 0.0 1.6 5.8 235
16/09/2020 12:50 31.0 32 724.2 600 0.0 2.1 7.4 341
16/09/2020 13:00 31.0 32 704.1 600 0.0 3.1 11.0 314
16/09/2020 13:10 30.7 32 694.0 600 0.0 1.9 6.8 323
16/09/2020 13:20 31.1 31 688.5 600 0.0 1.5 5.3 213
16/09/2020 13:30 31.5 31 683.7 600 0.0 1.3 4.7 277
16/09/2020 13:40 31.6 30 653.3 600 0.0 2.2 7.8 256
16/09/2020 13:50 31.8 29 638.5 600 0.0 1.4 5.0 270
16/09/2020 14:00 31.6 29 641.1 600 0.0 0.9 3.2 304
16/09/2020 14:10 32.0 28 626.2 600 0.0 1.6 5.8 301
16/09/2020 14:20 31.8 27 580.9 600 0.0 1.8 6.4 266
16/09/2020 14:30 32.0 27 576.0 600 0.0 1.0 3.7 274
16/09/2020 14:40 31.9 27 524.9 600 0.0 1.7 6.1 294
16/09/2020 14:50 31.9 27 508.4 600 0.0 1.2 4.1 217
16/09/2020 15:00 32.1 26 490.4 600 0.0 1.3 4.6 198
16/09/2020 15:10 32.0 25 437.7 600 0.0 1.8 6.4 293
16/09/2020 15:20 31.7 25 281.3 284 0.0 1.7 6.0 310
16/09/2020 15:30 31.3 25 277.3 418 0.0 1.4 4.9 290
16/09/2020 15:40 31.3 25 348.0 494 0.0 1.3 4.7 292
16/09/2020 15:50 31.8 24 388.1 600 0.0 1.9 6.7 258
16/09/2020 16:00 31.5 24 212.8 242 0.0 0.9 3.2 244
16/09/2020 16:10 31.0 25 204.2 412 0.0 1.4 5.0 311
16/09/2020 16:20 31.0 25 187.9 296 0.0 0.5 1.7 269
16/09/2020 16:30 31.1 25 192.5 600 0.0 0.4 1.4 248
16/09/2020 16:40 31.0 24 190.2 600 0.0 0.6 2.1 263
16/09/2020 16:50 30.9 24 182.7 600 0.0 1.0 3.7 304
16/09/2020 17:00 30.7 25 129.8 450 0.0 0.8 2.9 297
16/09/2020 17:10 29.7 28 100.8 296 0.0 0.9 3.1 284
16/09/2020 17:20 29.0 30 82.6 190 0.0 0.6 2.3 269
16/09/2020 17:30 27.8 31 47.0 0 0.0 0.7 2.4 309
16/09/2020 17:40 26.3 35 25.5 0 0.0 0.5 1.8 338
16/09/2020 17:50 25.2 37 6.7 0 0.0 0.4 1.4 335
16/09/2020 18:00 25.1 38 0.0 0 0.0 1.7 6.2 49
16/09/2020 18:10 26.5 39 0.0 0 0.0 2.5 9.1 36
16/09/2020 18:20 27.1 39 0.0 0 0.0 2.5 9.1 25
16/09/2020 18:30 26.8 40 0.0 0 0.0 2.2 7.8 33
16/09/2020 18:40 26.7 40 0.0 0 0.0 2.1 7.7 75
16/09/2020 18:50 26.3 41 0.0 0 0.0 2.1 7.5 94
16/09/2020 19:00 25.9 42 0.0 0 0.0 2.5 9.1 80
16/09/2020 19:10 26.0 42 0.0 0 0.0 2.3 8.2 100
16/09/2020 19:20 26.0 43 0.0 0 0.0 2.7 9.5 101
16/09/2020 19:30 25.6 44 0.0 0 0.0 2.4 8.5 110
16/09/2020 19:40 25.0 47 0.0 0 0.0 2.0 7.0 127
16/09/2020 19:50 24.1 49 0.0 0 0.0 0.4 1.4 262
16/09/2020 20:00 23.1 50 0.0 0 0.0 0.9 3.1 357
16/09/2020 20:10 22.1 52 0.0 0 0.0 0.6 2.0 105
16/09/2020 20:20 21.3 56 0.0 0 0.0 1.1 3.9 71
16/09/2020 20:30 20.8 58 0.0 0 0.0 0.7 2.6 129
16/09/2020 20:40 21.1 60 0.0 0 0.0 2.6 9.3 109
16/09/2020 20:50 22.5 56 0.0 0 0.0 2.8 10.2 115
16/09/2020 21:00 22.9 53 0.0 0 0.0 3.2 11.5 107
16/09/2020 21:10 23.0 54 0.0 0 0.0 2.5 8.9 113
16/09/2020 21:20 23.0 53 0.0 0 0.0 3.1 11.1 110
16/09/2020 21:30 22.9 54 0.0 0 0.0 2.6 9.4 113
16/09/2020 21:40 22.8 55 0.0 0 0.0 3.2 11.6 104
16/09/2020 21:50 22.5 55 0.0 0 0.0 4.6 16.4 104
16/09/2020 22:00 22.5 55 0.0 0 0.0 3.4 12.4 108
16/09/2020 22:10 22.4 53 0.0 0 0.0 3.1 11.1 94
16/09/2020 22:20 22.5 51 0.0 0 0.0 4.0 14.3 90
16/09/2020 22:30 22.6 52 0.0 0 0.0 4.0 14.3 106
16/09/2020 22:40 22.3 52 0.0 0 0.0 3.7 13.3 92
16/09/2020 22:50 21.8 54 0.0 0 0.0 4.5 16.1 80
16/09/2020 23:00 21.6 54 0.0 0 0.0 3.3 11.9 84
16/09/2020 23:10 21.6 54 0.0 0 0.0 2.4 8.7 103
16/09/2020 23:20 21.4 54 0.0 0 0.0 2.9 10.5 102
16/09/2020 23:30 21.5 55 0.0 0 0.0 2.7 9.5 91
16/09/2020 23:40 21.1 56 0.0 0 0.0 2.9 10.5 86
16/09/2020 23:50 21.0 57 0.0 0 0.0 3.1 11.2 96
Anterior Página 1 de 1 Siguiente

NOTA: Tipo de datos según el color:
   - Valores diarios o 10 minutos correctos
   - Valores diarios calculados a partir de un número de datos 10 minutos menor que 144 y mayor que 120, o de un número de datos semihorarios menor que 48 y mayor que 40 (caso de las estaciones de INTIA y del Ministerio)
   - Valores diez minutos estimados


Contacto        Enlaces        Aviso legal